Time;durP1;ratioP1;P1;durP2;ratioP2;P2;SDS_P1;SDS_P2;PMS_P1;PMS_P2;Temp;Humidity;BMP_temperature;BMP_pressure;BME280_temperature;BME280_humidity;BME280_pressure;Samples;Min_cycle;Max_cycle;Signal;HPM_P1;HPM_P2
2021/01/06 00:00:43;;;;;;;38.15;19.98;;;;;;;;;;5069737;28;20290;-77
2021/01/06 00:03:10;;;;;;;34.30;17.53;;;;;;;;;;5068225;28;20025;-77
2021/01/06 00:05:36;;;;;;;43.67;20.00;;;;;;;;;;5070268;28;20271;-77
2021/01/06 00:08:02;;;;;;;42.53;19.30;;;;;;;;;;5083776;28;20255;-77
2021/01/06 00:10:29;;;;;;;44.80;21.37;;;;;;;;;;5049523;28;20820;-77
2021/01/06 00:12:55;;;;;;;40.73;20.30;;;;;;;;;;5066424;28;20300;-78
2021/01/06 00:15:28;;;;;;;48.03;19.73;;;;;;;;;;5067437;28;20279;-78
2021/01/06 00:17:55;;;;;;;40.28;18.25;;;;;;;;;;5062942;28;20807;-79
2021/01/06 00:20:22;;;;;;;41.07;18.20;;;;;;;;;;5068536;28;20032;-77
2021/01/06 00:22:48;;;;;;;52.10;21.60;;;;;;;;;;5069565;28;20340;-77
2021/01/06 00:25:23;;;;;;;47.93;19.57;;;;;;;;;;5066993;28;20346;-77
2021/01/06 00:27:49;;;;;;;58.20;23.43;;;;;;;;;;5053246;28;20299;-78
2021/01/06 00:30:20;;;;;;;47.20;22.37;;;;;;;;;;5066687;28;20325;-79
2021/01/06 00:32:46;;;;;;;48.43;21.60;;;;;;;;;;5079638;28;20282;-76
2021/01/06 00:35:12;;;;;;;47.00;20.27;;;;;;;;;;5085572;28;20962;-77
2021/01/06 00:37:38;;;;;;;56.97;23.73;;;;;;;;;;5089063;28;20381;-78
2021/01/06 00:40:05;;;;;;;55.33;23.53;;;;;;;;;;5089274;28;20344;-79
2021/01/06 00:42:31;;;;;;;55.07;23.37;;;;;;;;;;5074802;28;20308;-77
2021/01/06 00:44:57;;;;;;;58.30;22.53;;;;;;;;;;5075287;28;20317;-77
2021/01/06 00:47:23;;;;;;;61.80;24.20;;;;;;;;;;5072974;28;20250;-77
2021/01/06 00:49:49;;;;;;;60.90;23.07;;;;;;;;;;5065138;28;20271;-77
2021/01/06 00:52:15;;;;;;;48.43;21.73;;;;;;;;;;5075266;28;20277;-76
2021/01/06 00:54:42;;;;;;;47.77;21.37;;;;;;;;;;5068975;28;20304;-77
2021/01/06 00:57:08;;;;;;;46.07;20.63;;;;;;;;;;5071328;28;20279;-77
2021/01/06 00:59:34;;;;;;;54.40;21.03;;;;;;;;;;5072320;28;20291;-77
2021/01/06 01:02:00;;;;;;;60.27;21.73;;;;;;;;;;5069142;28;20287;-77
2021/01/06 01:04:26;;;;;;;48.60;22.40;;;;;;;;;;5065074;28;21034;-77
2021/01/06 01:06:53;;;;;;;52.00;22.40;;;;;;;;;;5070730;28;20275;-77
2021/01/06 01:09:19;;;;;;;48.00;20.83;;;;;;;;;;5071256;28;20369;-77
2021/01/06 01:11:45;;;;;;;46.97;21.67;;;;;;;;;;5072328;28;20282;-77
2021/01/06 01:14:11;;;;;;;49.00;21.03;;;;;;;;;;5072871;28;20271;-77
2021/01/06 01:16:44;;;;;;;48.17;21.17;;;;;;;;;;5071078;28;20361;-77
2021/01/06 01:19:10;;;;;;;44.37;21.27;;;;;;;;;;5089712;28;20555;-77
2021/01/06 01:21:37;;;;;;;51.53;20.27;;;;;;;;;;5074730;28;20317;-77
2021/01/06 01:24:04;;;;;;;51.03;20.63;;;;;;;;;;5072878;28;20275;-77
2021/01/06 01:26:30;;;;;;;54.30;20.77;;;;;;;;;;5069858;28;20278;-77
2021/01/06 01:28:56;;;;;;;54.37;20.63;;;;;;;;;;5054419;28;20295;-76
2021/01/06 01:31:30;;;;;;;44.33;18.87;;;;;;;;;;5053941;28;20310;-77
2021/01/06 01:33:56;;;;;;;50.47;22.07;;;;;;;;;;5065895;28;20283;-79
2021/01/06 01:36:22;;;;;;;50.23;19.73;;;;;;;;;;5080423;28;20271;-76
2021/01/06 01:38:48;;;;;;;45.93;18.90;;;;;;;;;;5053709;28;20638;-77
2021/01/06 01:41:15;;;;;;;47.67;20.13;;;;;;;;;;5061086;28;20310;-77
2021/01/06 01:43:41;;;;;;;56.07;20.57;;;;;;;;;;5073668;28;20271;-77
2021/01/06 01:46:07;;;;;;;58.23;21.70;;;;;;;;;;5072930;28;20266;-77
2021/01/06 01:48:33;;;;;;;50.50;20.53;;;;;;;;;;5074852;28;20263;-76
2021/01/06 01:51:07;;;;;;;50.90;20.07;;;;;;;;;;5073647;28;20283;-77
2021/01/06 01:53:55;;;;;;;46.27;20.30;;;;;;;;;;5073511;28;20271;-77
2021/01/06 01:56:25;;;;;;;52.30;18.57;;;;;;;;;;5073042;28;20293;-77
2021/01/06 01:58:52;;;;;;;53.47;20.07;;;;;;;;;;5071242;28;20282;-77
2021/01/06 02:01:19;;;;;;;51.20;19.80;;;;;;;;;;5088108;28;20290;-77
2021/01/06 02:03:49;;;;;;;48.00;19.90;;;;;;;;;;5073931;28;20278;-77
2021/01/06 02:06:18;;;;;;;46.40;17.87;;;;;;;;;;5088914;28;20263;-77
2021/01/06 02:08:50;;;;;;;49.87;19.97;;;;;;;;;;5072086;28;20322;-77
2021/01/06 02:11:39;;;;;;;48.40;19.73;;;;;;;;;;5069847;28;20290;-77
2021/01/06 02:14:15;;;;;;;41.83;18.97;;;;;;;;;;5072823;28;20814;-77
2021/01/06 02:17:02;;;;;;;44.33;19.73;;;;;;;;;;5073263;28;20267;-78
2021/01/06 02:19:31;;;;;;;51.47;20.90;;;;;;;;;;5053980;28;20317;-77
2021/01/06 02:21:58;;;;;;;46.57;19.77;;;;;;;;;;5055198;28;20609;-80
2021/01/06 02:24:24;;;;;;;43.03;18.53;;;;;;;;;;5084162;28;20285;-78
2021/01/06 02:26:51;;;;;;;47.30;19.53;;;;;;;;;;5090097;28;20258;-77
2021/01/06 02:29:17;;;;;;;50.40;20.23;;;;;;;;;;5077748;28;20287;-77
2021/01/06 02:31:43;;;;;;;43.50;19.87;;;;;;;;;;5076501;28;20282;-77
2021/01/06 02:34:10;;;;;;;47.63;20.97;;;;;;;;;;5090664;28;20279;-77
2021/01/06 02:36:37;;;;;;;42.00;18.17;;;;;;;;;;5068565;28;20394;-78
2021/01/06 02:39:05;;;;;;;37.37;19.50;;;;;;;;;;5052622;28;20275;-79
2021/01/06 02:41:31;;;;;;;39.27;18.10;;;;;;;;;;5070168;28;20333;-76
2021/01/06 02:43:57;;;;;;;39.97;18.47;;;;;;;;;;5107329;28;20302;-77
2021/01/06 02:46:24;;;;;;;46.17;20.17;;;;;;;;;;5082921;28;20287;-77
2021/01/06 02:48:50;;;;;;;38.40;18.63;;;;;;;;;;5085370;28;20330;-77
2021/01/06 02:51:25;;;;;;;44.87;21.97;;;;;;;;;;5088998;28;20340;-77
2021/01/06 02:53:59;;;;;;;39.10;18.67;;;;;;;;;;5072229;28;20275;-77
2021/01/06 02:56:25;;;;;;;44.53;19.53;;;;;;;;;;5073562;28;20283;-77
2021/01/06 02:58:52;;;;;;;39.27;19.50;;;;;;;;;;5072787;28;20313;-77
2021/01/06 03:01:20;;;;;;;42.57;19.53;;;;;;;;;;5075368;28;20283;-77
2021/01/06 03:03:46;;;;;;;44.37;20.87;;;;;;;;;;5074677;28;20274;-78
2021/01/06 03:06:23;;;;;;;46.17;21.93;;;;;;;;;;5089662;28;20259;-77
2021/01/06 03:08:49;;;;;;;42.70;20.63;;;;;;;;;;5072778;28;20326;-78
2021/01/06 03:11:15;;;;;;;49.27;22.40;;;;;;;;;;5068990;28;20808;-77
2021/01/06 03:13:41;;;;;;;49.50;22.03;;;;;;;;;;5070524;28;20986;-77
2021/01/06 03:16:07;;;;;;;49.17;20.63;;;;;;;;;;5072006;28;20286;-78
2021/01/06 03:18:34;;;;;;;49.10;21.47;;;;;;;;;;5087298;28;20370;-77
2021/01/06 03:21:05;;;;;;;46.30;19.93;;;;;;;;;;5072069;28;20282;-77
2021/01/06 03:23:39;;;;;;;52.27;22.23;;;;;;;;;;5073779;28;20270;-78
2021/01/06 03:26:07;;;;;;;52.40;22.90;;;;;;;;;;5072262;28;20282;-78
2021/01/06 03:28:35;;;;;;;52.20;23.43;;;;;;;;;;5061781;28;20756;-77
2021/01/06 03:31:03;;;;;;;49.10;22.30;;;;;;;;;;5073113;28;20803;-78
2021/01/06 03:33:32;;;;;;;49.27;21.73;;;;;;;;;;5071887;28;20297;-78
2021/01/06 03:36:04;;;;;;;46.97;22.83;;;;;;;;;;5064901;28;20928;-77
2021/01/06 03:38:35;;;;;;;53.40;21.67;;;;;;;;;;5071940;28;20263;-77
2021/01/06 03:41:02;;;;;;;48.33;23.03;;;;;;;;;;5072304;28;20275;-79
2021/01/06 03:43:30;;;;;;;50.43;21.73;;;;;;;;;;5071929;28;20361;-77
2021/01/06 03:46:01;;;;;;;49.67;22.63;;;;;;;;;;5060009;28;20359;-77
2021/01/06 03:48:46;;;;;;;49.73;21.17;;;;;;;;;;5074610;28;20320;-78
2021/01/06 03:51:31;;;;;;;49.67;21.20;;;;;;;;;;5074241;28;20315;-77
2021/01/06 03:53:59;;;;;;;55.03;23.63;;;;;;;;;;5085094;28;20294;-77
2021/01/06 03:56:26;;;;;;;56.00;24.13;;;;;;;;;;5073063;28;20311;-77
2021/01/06 03:59:01;;;;;;;58.30;22.97;;;;;;;;;;5065861;28;20352;-78
2021/01/06 04:01:46;;;;;;;53.87;23.93;;;;;;;;;;5073603;28;20306;-77
2021/01/06 04:04:31;;;;;;;56.90;24.10;;;;;;;;;;5065049;28;20255;-77
2021/01/06 04:07:01;;;;;;;55.13;24.00;;;;;;;;;;5067769;28;20332;-78
2021/01/06 04:09:36;;;;;;;53.37;22.93;;;;;;;;;;5078961;28;20279;-78
2021/01/06 04:12:07;;;;;;;47.93;21.23;;;;;;;;;;5067968;28;20659;-76
2021/01/06 04:14:33;;;;;;;44.53;18.67;;;;;;;;;;5069577;28;20325;-77
2021/01/06 04:17:17;;;;;;;45.57;21.10;;;;;;;;;;5070213;28;20267;-77
2021/01/06 04:19:47;;;;;;;45.60;21.33;;;;;;;;;;5066555;28;20290;-78
2021/01/06 04:22:13;;;;;;;48.40;20.60;;;;;;;;;;5070563;28;20284;-77
2021/01/06 04:24:39;;;;;;;43.73;21.30;;;;;;;;;;5068502;28;20271;-77
2021/01/06 04:27:06;;;;;;;47.43;22.47;;;;;;;;;;5065701;28;20282;-78
2021/01/06 04:29:32;;;;;;;55.60;22.40;;;;;;;;;;5072172;28;20341;-78
2021/01/06 04:31:58;;;;;;;49.50;21.13;;;;;;;;;;5058211;28;20305;-77
2021/01/06 04:34:24;;;;;;;43.37;21.13;;;;;;;;;;5069337;28;20291;-77
2021/01/06 04:36:50;;;;;;;44.17;21.87;;;;;;;;;;5067866;28;20408;-77
2021/01/06 04:39:17;;;;;;;41.07;22.40;;;;;;;;;;5070433;28;20281;-76
2021/01/06 04:41:58;;;;;;;45.60;19.53;;;;;;;;;;5069037;28;20294;-79
2021/01/06 04:44:43;;;;;;;40.10;19.27;;;;;;;;;;5068465;28;20829;-78
2021/01/06 04:47:28;;;;;;;38.50;17.83;;;;;;;;;;5070798;28;20258;-77
2021/01/06 04:50:14;;;;;;;36.10;18.60;;;;;;;;;;5075971;28;20240;-79
2021/01/06 04:52:57;;;;;;;43.37;17.70;;;;;;;;;;5097630;28;20262;-78
2021/01/06 04:55:32;;;;;;;34.53;16.58;;;;;;;;;;5067567;28;20618;-77
2021/01/06 04:58:01;;;;;;;35.33;17.03;;;;;;;;;;5083490;28;20669;-79
2021/01/06 05:00:31;;;;;;;31.40;17.07;;;;;;;;;;5086101;28;20298;-76
2021/01/06 05:03:36;;;;;;;31.83;16.83;;;;;;;;;;5072492;28;20273;-77
2021/01/06 05:06:21;;;;;;;31.13;17.07;;;;;;;;;;5041159;28;20268;-77
2021/01/06 05:08:51;;;;;;;34.20;16.00;;;;;;;;;;5030663;28;20303;-77
2021/01/06 05:11:34;;;;;;;37.20;17.47;;;;;;;;;;5041337;28;20271;-77
2021/01/06 05:14:12;;;;;;;33.97;17.25;;;;;;;;;;5058052;28;20275;-77
2021/01/06 05:16:40;;;;;;;42.43;18.40;;;;;;;;;;5063649;28;20071;-78
2021/01/06 05:19:07;;;;;;;38.73;18.27;;;;;;;;;;5058858;28;20288;-77
2021/01/06 05:21:34;;;;;;;41.13;18.27;;;;;;;;;;5074954;28;20355;-76
2021/01/06 05:24:06;;;;;;;39.90;18.60;;;;;;;;;;5067210;28;20295;-77
2021/01/06 05:26:32;;;;;;;35.43;17.13;;;;;;;;;;5068396;28;20282;-77
2021/01/06 05:28:59;;;;;;;34.37;17.43;;;;;;;;;;5083504;28;20386;-77
2021/01/06 05:31:25;;;;;;;39.33;19.40;;;;;;;;;;5055560;28;20270;-76
2021/01/06 05:33:53;;;;;;;38.27;18.17;;;;;;;;;;5071723;28;20259;-76
2021/01/06 05:36:21;;;;;;;37.17;17.83;;;;;;;;;;5068279;28;20327;-75
2021/01/06 05:38:47;;;;;;;37.27;18.10;;;;;;;;;;5070233;28;20331;-77
2021/01/06 05:41:13;;;;;;;45.07;18.43;;;;;;;;;;5085673;28;20283;-76
2021/01/06 05:43:44;;;;;;;40.13;19.43;;;;;;;;;;5071421;28;20313;-77
2021/01/06 05:46:20;;;;;;;42.33;18.87;;;;;;;;;;5068612;28;20983;-77
2021/01/06 05:48:57;;;;;;;36.23;17.80;;;;;;;;;;5069280;28;20344;-77
2021/01/06 05:51:33;;;;;;;36.83;17.00;;;;;;;;;;5080677;28;20275;-76
2021/01/06 05:53:59;;;;;;;43.77;18.47;;;;;;;;;;5065602;28;20275;-76
2021/01/06 05:56:40;;;;;;;41.53;17.87;;;;;;;;;;5085217;28;20955;-77
2021/01/06 05:59:20;;;;;;;36.40;16.40;;;;;;;;;;5069541;28;20353;-76
2021/01/06 06:01:58;;;;;;;39.77;16.80;;;;;;;;;;5069173;28;20306;-76
2021/01/06 06:04:33;;;;;;;38.00;16.57;;;;;;;;;;5067717;28;20312;-78
2021/01/06 06:07:07;;;;;;;37.40;17.30;;;;;;;;;;5066902;28;20251;-76
2021/01/06 06:09:43;;;;;;;29.57;14.13;;;;;;;;;;5068648;28;20269;-76
2021/01/06 06:12:12;;;;;;;28.03;14.40;;;;;;;;;;5061030;28;20288;-75
2021/01/06 06:14:57;;;;;;;30.67;15.17;;;;;;;;;;5067540;28;20775;-77
2021/01/06 06:17:52;;;;;;;28.60;14.73;;;;;;;;;;5075583;28;20287;-76
2021/01/06 06:20:18;;;;;;;29.40;14.33;;;;;;;;;;5044069;28;21045;-76
2021/01/06 06:22:56;;;;;;;29.60;15.77;;;;;;;;;;5069492;28;21088;-77
2021/01/06 06:25:30;;;;;;;29.10;14.53;;;;;;;;;;5067177;28;20270;-76
2021/01/06 06:28:02;;;;;;;29.05;15.85;;;;;;;;;;5083331;28;20290;-77
2021/01/06 06:30:51;;;;;;;29.57;15.60;;;;;;;;;;5068555;28;20052;-77
2021/01/06 06:33:35;;;;;;;27.30;14.83;;;;;;;;;;5048086;28;20321;-76
2021/01/06 06:36:02;;;;;;;27.03;14.93;;;;;;;;;;5057815;28;20779;-76
2021/01/06 06:38:36;;;;;;;26.67;14.50;;;;;;;;;;5048294;28;21005;-77
2021/01/06 06:41:05;;;;;;;30.90;15.97;;;;;;;;;;5050993;28;20412;-76
2021/01/06 06:43:37;;;;;;;25.27;13.30;;;;;;;;;;5068133;28;20251;-76
2021/01/06 06:46:23;;;;;;;25.23;14.53;;;;;;;;;;5066288;28;20668;-77
2021/01/06 06:49:04;;;;;;;25.97;15.00;;;;;;;;;;5063011;28;20788;-76
2021/01/06 06:51:30;;;;;;;23.97;14.23;;;;;;;;;;5064104;28;20333;-76
2021/01/06 06:53:56;;;;;;;24.17;14.53;;;;;;;;;;5062243;28;20258;-77
2021/01/06 06:56:41;;;;;;;25.60;14.77;;;;;;;;;;5067284;28;20266;-77
2021/01/06 06:59:11;;;;;;;25.90;13.13;;;;;;;;;;5078542;28;20359;-76
2021/01/06 07:01:40;;;;;;;23.17;12.83;;;;;;;;;;5088935;28;20294;-76
2021/01/06 07:04:13;;;;;;;19.93;13.40;;;;;;;;;;5069078;28;20335;-76
2021/01/06 07:06:39;;;;;;;23.95;13.23;;;;;;;;;;5082369;28;21107;-77
2021/01/06 07:09:05;;;;;;;26.87;14.43;;;;;;;;;;5066398;28;20033;-76
2021/01/06 07:11:47;;;;;;;22.63;13.20;;;;;;;;;;5082598;28;20302;-75
2021/01/06 07:14:20;;;;;;;20.67;12.27;;;;;;;;;;5059647;28;20378;-77
2021/01/06 07:16:56;;;;;;;17.92;11.57;;;;;;;;;;5065222;28;20294;-77
2021/01/06 07:19:22;;;;;;;19.03;12.47;;;;;;;;;;5065545;28;20474;-77
2021/01/06 07:21:50;;;;;;;16.80;10.47;;;;;;;;;;5082351;28;20360;-77
2021/01/06 07:24:19;;;;;;;18.60;11.33;;;;;;;;;;5065257;28;20760;-76
2021/01/06 07:26:47;;;;;;;17.37;11.03;;;;;;;;;;5064526;28;21003;-76
2021/01/06 07:29:14;;;;;;;20.93;12.50;;;;;;;;;;5065776;28;20267;-77
2021/01/06 07:31:41;;;;;;;17.17;10.80;;;;;;;;;;5065989;28;20320;-76
2021/01/06 07:34:12;;;;;;;18.20;12.40;;;;;;;;;;5060281;28;20275;-77
2021/01/06 07:36:49;;;;;;;28.07;17.90;;;;;;;;;;5081769;28;20370;-77
2021/01/06 07:39:19;;;;;;;18.57;10.03;;;;;;;;;;5063833;28;20286;-77
2021/01/06 07:41:45;;;;;;;140.40;74.77;;;;;;;;;;5081489;28;20286;-76
2021/01/06 07:44:21;;;;;;;76.33;42.63;;;;;;;;;;5064301;28;20322;-76
2021/01/06 07:46:54;;;;;;;143.47;71.33;;;;;;;;;;5065688;28;20301;-77
2021/01/06 07:49:39;;;;;;;162.32;80.93;;;;;;;;;;5062697;28;20285;-76
2021/01/06 07:52:14;;;;;;;270.23;133.33;;;;;;;;;;5080644;28;20024;-76
2021/01/06 07:54:49;;;;;;;50.50;32.90;;;;;;;;;;5051227;28;20259;-76
2021/01/06 07:57:16;;;;;;;19.50;11.90;;;;;;;;;;5048239;28;20274;-77
2021/01/06 07:59:56;;;;;;;27.73;21.47;;;;;;;;;;5080813;28;20286;-76
2021/01/06 08:02:47;;;;;;;13.70;9.53;;;;;;;;;;5063678;28;20293;-75
2021/01/06 08:05:13;;;;;;;17.90;11.67;;;;;;;;;;5064203;28;20299;-76
2021/01/06 08:07:39;;;;;;;17.80;10.97;;;;;;;;;;5063130;28;20627;-76
2021/01/06 08:10:28;;;;;;;16.00;10.67;;;;;;;;;;5064569;28;20263;-77
2021/01/06 08:13:27;;;;;;;24.17;15.33;;;;;;;;;;5058687;28;20262;-76
2021/01/06 08:15:55;;;;;;;23.23;14.17;;;;;;;;;;5032150;28;20355;-76
2021/01/06 08:18:30;;;;;;;15.13;10.90;;;;;;;;;;5051728;28;20259;-77
2021/01/06 08:21:08;;;;;;;16.03;10.37;;;;;;;;;;5049731;28;20294;-77
2021/01/06 08:23:59;;;;;;;15.83;11.57;;;;;;;;;;5049847;28;21067;-76
2021/01/06 08:26:27;;;;;;;15.20;9.93;;;;;;;;;;5063696;28;20299;-76
2021/01/06 08:29:10;;;;;;;15.30;9.93;;;;;;;;;;5064400;28;20266;-77
2021/01/06 08:31:37;;;;;;;16.53;11.03;;;;;;;;;;5064639;28;20275;-78
2021/01/06 08:34:03;;;;;;;16.70;11.50;;;;;;;;;;5065097;28;20323;-77
2021/01/06 08:36:29;;;;;;;16.70;11.27;;;;;;;;;;5064303;28;20324;-76
2021/01/06 08:39:05;;;;;;;15.87;10.93;;;;;;;;;;5066369;28;20263;-76
2021/01/06 08:41:32;;;;;;;14.77;10.17;;;;;;;;;;5068691;28;20290;-77
2021/01/06 08:44:02;;;;;;;17.20;9.93;;;;;;;;;;5065606;28;20263;-77
2021/01/06 08:46:31;;;;;;;15.37;10.60;;;;;;;;;;5061486;28;20275;-78
2021/01/06 08:49:36;;;;;;;42.07;29.60;;;;;;;;;;5063860;28;20259;-76
2021/01/06 08:52:17;;;;;;;19.53;13.97;;;;;;;;;;5023597;28;20892;-76
2021/01/06 08:54:47;;;;;;;16.07;10.60;;;;;;;;;;5022789;28;20327;-76
2021/01/06 08:57:26;;;;;;;16.03;10.60;;;;;;;;;;5063090;28;20847;-77
2021/01/06 08:59:52;;;;;;;17.67;12.50;;;;;;;;;;5062873;28;20305;-76
2021/01/06 09:02:34;;;;;;;14.57;10.43;;;;;;;;;;5062358;28;20755;-76
2021/01/06 09:05:01;;;;;;;15.03;9.97;;;;;;;;;;5083473;28;20247;-75
2021/01/06 09:07:30;;;;;;;15.43;11.07;;;;;;;;;;5086552;28;20673;-77
2021/01/06 09:10:09;;;;;;;17.00;10.80;;;;;;;;;;5067707;28;20271;-76
2021/01/06 09:12:44;;;;;;;14.93;9.87;;;;;;;;;;5061112;28;20291;-77
2021/01/06 09:15:19;;;;;;;16.97;11.47;;;;;;;;;;5066623;28;20333;-76
2021/01/06 09:18:06;;;;;;;14.70;9.37;;;;;;;;;;5063573;28;20283;-76
2021/01/06 09:20:37;;;;;;;16.80;10.53;;;;;;;;;;5054510;28;20279;-76
2021/01/06 09:23:03;;;;;;;16.47;10.37;;;;;;;;;;5068621;28;20299;-77
2021/01/06 09:25:29;;;;;;;16.17;10.13;;;;;;;;;;5077207;28;20259;-76
2021/01/06 09:27:58;;;;;;;16.17;10.93;;;;;;;;;;5065906;28;20262;-76
2021/01/06 09:30:35;;;;;;;15.17;10.33;;;;;;;;;;5066843;28;20298;-76
2021/01/06 09:33:03;;;;;;;15.90;11.07;;;;;;;;;;5078385;28;20277;-76
2021/01/06 09:35:32;;;;;;;18.53;11.73;;;;;;;;;;5066912;28;20290;-75
2021/01/06 09:38:01;;;;;;;25.30;16.83;;;;;;;;;;5064555;28;20279;-76
2021/01/06 09:40:30;;;;;;;18.07;11.97;;;;;;;;;;5068588;28;20349;-76
2021/01/06 09:42:59;;;;;;;18.30;12.17;;;;;;;;;;5064823;28;20392;-76
2021/01/06 09:45:26;;;;;;;16.37;11.87;;;;;;;;;;5084331;28;20267;-77
2021/01/06 09:48:00;;;;;;;16.17;11.77;;;;;;;;;;5068336;28;20259;-76
2021/01/06 09:50:26;;;;;;;;;;;;;;;;;;5064047;28;20347;-76
2021/01/06 09:52:53;;;;;;;18.30;11.80;;;;;;;;;;5048292;28;20002;-76
2021/01/06 09:55:24;;;;;;;21.67;14.37;;;;;;;;;;5083179;28;20028;-77
2021/01/06 09:58:08;;;;;;;15.73;10.47;;;;;;;;;;5064594;28;20252;-76
2021/01/06 10:00:40;;;;;;;20.88;12.85;;;;;;;;;;5052645;28;20259;-76
2021/01/06 10:03:06;;;;;;;26.23;15.27;;;;;;;;;;5067632;28;20024;-77
2021/01/06 10:05:56;;;;;;;23.07;14.40;;;;;;;;;;5068656;28;20329;-76
2021/01/06 10:08:22;;;;;;;27.83;17.77;;;;;;;;;;5064580;28;20274;-76
2021/01/06 10:10:50;;;;;;;19.30;13.57;;;;;;;;;;5085141;28;20274;-77
2021/01/06 10:13:32;;;;;;;16.73;11.07;;;;;;;;;;5084164;28;20767;-75
2021/01/06 10:16:18;;;;;;;17.83;12.53;;;;;;;;;;5083557;28;20263;-78
2021/01/06 10:19:03;;;;;;;19.27;13.07;;;;;;;;;;5064984;28;20263;-76
2021/01/06 10:21:32;;;;;;;24.07;16.13;;;;;;;;;;5067544;28;20279;-77
2021/01/06 10:24:17;;;;;;;23.93;15.53;;;;;;;;;;5061446;28;20270;-75
2021/01/06 10:26:56;;;;;;;21.53;13.93;;;;;;;;;;5066289;28;20351;-78
2021/01/06 10:29:42;;;;;;;18.87;13.63;;;;;;;;;;5083945;28;20294;-77
2021/01/06 10:32:11;;;;;;;26.73;16.27;;;;;;;;;;5050741;28;20272;-75
2021/01/06 10:34:37;;;;;;;20.80;13.43;;;;;;;;;;5062934;28;21022;-76
2021/01/06 10:37:03;;;;;;;17.80;12.30;;;;;;;;;;5075752;28;20279;-77
2021/01/06 10:39:29;;;;;;;17.87;12.87;;;;;;;;;;5065662;28;20273;-76
2021/01/06 10:42:00;;;;;;;19.50;13.13;;;;;;;;;;5066841;28;20389;-76
2021/01/06 10:44:28;;;;;;;22.30;14.13;;;;;;;;;;5063962;28;20276;-76
2021/01/06 10:46:55;;;;;;;18.30;12.13;;;;;;;;;;5048867;28;20282;-77
2021/01/06 10:49:21;;;;;;;20.37;13.20;;;;;;;;;;5065259;28;20268;-76
2021/01/06 10:52:01;;;;;;;19.10;13.23;;;;;;;;;;5049464;28;20309;-78
2021/01/06 10:54:32;;;;;;;18.50;12.13;;;;;;;;;;5081617;28;20278;-76
2021/01/06 10:56:59;;;;;;;19.87;13.30;;;;;;;;;;5069425;28;20283;-77
2021/01/06 10:59:25;;;;;;;17.40;12.37;;;;;;;;;;5069989;28;20358;-77
2021/01/06 11:01:57;;;;;;;17.70;11.50;;;;;;;;;;5070193;28;20700;-77
2021/01/06 11:04:38;;;;;;;16.13;11.50;;;;;;;;;;5060760;28;20251;-78
2021/01/06 11:07:19;;;;;;;16.47;11.70;;;;;;;;;;5074716;28;20321;-77
2021/01/06 11:09:45;;;;;;;16.03;11.47;;;;;;;;;;5060621;28;20263;-77
2021/01/06 11:12:22;;;;;;;14.57;10.07;;;;;;;;;;5080021;28;20043;-78
2021/01/06 11:14:48;;;;;;;15.67;11.57;;;;;;;;;;5113120;28;20043;-78
2021/01/06 11:17:17;;;;;;;17.57;11.73;;;;;;;;;;5075447;28;20094;-78
2021/01/06 11:19:43;;;;;;;18.53;11.97;;;;;;;;;;5063876;28;20277;-77
2021/01/06 11:22:22;;;;;;;28.50;17.97;;;;;;;;;;5074519;28;20068;-77
2021/01/06 11:24:56;;;;;;;17.23;11.43;;;;;;;;;;5071339;28;20059;-78
2021/01/06 11:27:34;;;;;;;15.57;10.63;;;;;;;;;;5069212;28;20040;-77
2021/01/06 11:30:10;;;;;;;17.10;11.50;;;;;;;;;;5063400;28;20469;-77
2021/01/06 11:32:38;;;;;;;17.20;11.33;;;;;;;;;;5073726;28;20043;-79
2021/01/06 11:35:09;;;;;;;15.20;11.33;;;;;;;;;;5075448;28;20410;-77
2021/01/06 11:37:40;;;;;;;18.07;11.63;;;;;;;;;;5074130;28;20047;-77
2021/01/06 11:40:26;;;;;;;23.20;15.43;;;;;;;;;;5091174;28;20758;-77
2021/01/06 11:43:01;;;;;;;15.17;10.97;;;;;;;;;;5071234;28;20393;-79
2021/01/06 11:45:32;;;;;;;16.53;11.33;;;;;;;;;;5072909;28;20301;-77
2021/01/06 11:48:05;;;;;;;15.43;10.43;;;;;;;;;;5090365;28;20273;-79
2021/01/06 11:50:37;;;;;;;16.48;11.00;;;;;;;;;;5065218;28;20682;-77
2021/01/06 11:53:22;;;;;;;15.97;11.07;;;;;;;;;;5074214;28;20024;-77
2021/01/06 11:56:14;;;;;;;15.80;11.23;;;;;;;;;;5072467;28;20021;-77
2021/01/06 11:58:44;;;;;;;15.57;11.70;;;;;;;;;;5061985;28;20032;-79
2021/01/06 12:01:14;;;;;;;16.47;10.73;;;;;;;;;;5070422;28;20287;-77
2021/01/06 12:03:43;;;;;;;16.63;11.60;;;;;;;;;;5073897;28;20275;-79
2021/01/06 12:06:21;;;;;;;16.67;12.30;;;;;;;;;;5074540;28;20275;-79
2021/01/06 12:08:47;;;;;;;15.27;10.13;;;;;;;;;;5071815;28;20275;-77
2021/01/06 12:11:26;;;;;;;13.90;9.87;;;;;;;;;;5086328;28;20278;-79
2021/01/06 12:14:11;;;;;;;14.67;9.90;;;;;;;;;;5072787;28;20640;-78
2021/01/06 12:16:39;;;;;;;14.30;9.60;;;;;;;;;;5078017;28;20255;-78
2021/01/06 12:19:05;;;;;;;14.30;10.53;;;;;;;;;;5074261;28;20320;-79
2021/01/06 12:21:52;;;;;;;15.77;10.07;;;;;;;;;;5071970;28;20401;-78
2021/01/06 12:24:30;;;;;;;15.07;9.93;;;;;;;;;;5084307;28;20310;-79
2021/01/06 12:27:09;;;;;;;15.80;10.97;;;;;;;;;;5074001;28;20255;-81
2021/01/06 12:29:56;;;;;;;20.07;13.27;;;;;;;;;;5071861;28;20259;-78
2021/01/06 12:32:25;;;;;;;16.67;11.33;;;;;;;;;;5042598;28;20289;-78
2021/01/06 12:34:53;;;;;;;14.33;9.37;;;;;;;;;;5076799;28;20370;-80
2021/01/06 12:37:31;;;;;;;13.70;9.37;;;;;;;;;;5078048;28;20267;-79
2021/01/06 12:40:00;;;;;;;15.27;10.33;;;;;;;;;;5074086;28;20032;-79
2021/01/06 12:42:42;;;;;;;14.37;9.40;;;;;;;;;;5100295;28;20278;-78
2021/01/06 12:45:14;;;;;;;13.63;9.40;;;;;;;;;;5079924;28;20503;-79
2021/01/06 12:47:46;;;;;;;14.90;9.20;;;;;;;;;;5083704;28;20027;-79
2021/01/06 12:50:25;;;;;;;13.97;9.63;;;;;;;;;;5080489;28;20287;-80
2021/01/06 12:52:53;;;;;;;14.17;9.30;;;;;;;;;;5079808;28;20258;-81
2021/01/06 12:55:38;;;;;;;15.43;10.80;;;;;;;;;;5079764;28;20079;-80
2021/01/06 12:58:21;;;;;;;13.83;9.13;;;;;;;;;;5075043;28;20049;-79
2021/01/06 13:00:48;;;;;;;11.93;8.52;;;;;;;;;;5059870;28;20101;-79
2021/01/06 13:03:23;;;;;;;15.10;9.90;;;;;;;;;;5078971;28;20032;-80
2021/01/06 13:06:10;;;;;;;16.67;10.37;;;;;;;;;;5079533;28;20312;-81
2021/01/06 13:08:49;;;;;;;17.10;10.93;;;;;;;;;;5065185;28;20287;-80
2021/01/06 13:11:18;;;;;;;15.40;9.93;;;;;;;;;;5080692;28;20267;-80
2021/01/06 13:13:45;;;;;;;16.07;10.63;;;;;;;;;;5078273;28;20290;-81
2021/01/06 13:16:44;;;;;;;16.23;11.10;;;;;;;;;;5074484;28;20287;-79
2021/01/06 13:19:18;;;;;;;17.00;11.43;;;;;;;;;;5055915;28;20263;-79
2021/01/06 13:21:57;;;;;;;16.57;10.60;;;;;;;;;;5099557;28;20291;-78
2021/01/06 13:24:27;;;;;;;18.73;12.13;;;;;;;;;;5088752;28;20032;-80
2021/01/06 13:26:53;;;;;;;20.33;13.50;;;;;;;;;;5077938;28;20786;-80
2021/01/06 13:29:22;;;;;;;20.97;12.97;;;;;;;;;;5078820;28;20263;-80
2021/01/06 13:31:52;;;;;;;21.30;12.77;;;;;;;;;;5082474;28;20450;-80
2021/01/06 13:34:22;;;;;;;21.77;15.47;;;;;;;;;;5082055;28;20290;-82
2021/01/06 13:36:59;;;;;;;19.77;13.43;;;;;;;;;;5081525;28;20318;-81
2021/01/06 13:39:28;;;;;;;18.73;11.33;;;;;;;;;;5080658;28;20282;-81
2021/01/06 13:41:56;;;;;;;17.23;11.27;;;;;;;;;;5080542;28;20291;-80
2021/01/06 13:44:28;;;;;;;18.07;11.27;;;;;;;;;;5075613;28;20514;-80
2021/01/06 13:46:57;;;;;;;19.13;14.17;;;;;;;;;;5097206;28;20259;-80
2021/01/06 13:56:09;;;;;;;15.40;10.53;;;;;;;;;;5078668;28;20289;-80
2021/01/06 14:02:13;;;;;;;17.42;11.07;;;;;;;;;;5080192;28;20319;-80
2021/01/06 14:07:49;;;;;;;17.20;11.13;;;;;;;;;;5076854;28;20255;-82
2021/01/06 14:10:34;;;;;;;15.60;10.67;;;;;;;;;;5077219;28;20287;-79
2021/01/06 14:16:28;;;;;;;16.27;11.10;;;;;;;;;;5087530;28;20049;-80
2021/01/06 14:19:15;;;;;;;20.73;12.73;;;;;;;;;;5065944;28;20279;-80
2021/01/06 14:22:15;;;;;;;32.37;15.47;;;;;;;;;;5082227;28;20362;-80
2021/01/06 14:24:51;;;;;;;38.40;19.67;;;;;;;;;;5059728;28;20340;-80
2021/01/06 14:27:35;;;;;;;34.17;17.33;;;;;;;;;;5101371;28;20271;-81
2021/01/06 14:30:02;;;;;;;57.67;28.43;;;;;;;;;;5081822;28;20279;-80
2021/01/06 14:32:34;;;;;;;54.13;24.43;;;;;;;;;;5083362;28;20339;-81
2021/01/06 14:35:05;;;;;;;59.40;28.57;;;;;;;;;;5079313;28;20310;-80
2021/01/06 14:37:39;;;;;;;28.83;17.53;;;;;;;;;;5082670;28;20282;-81
2021/01/06 14:40:13;;;;;;;18.83;12.90;;;;;;;;;;5083523;28;20305;-81
2021/01/06 14:42:42;;;;;;;25.70;16.47;;;;;;;;;;5083404;28;20299;-79
2021/01/06 14:45:29;;;;;;;20.37;13.60;;;;;;;;;;5085019;28;20307;-79
2021/01/06 14:47:59;;;;;;;20.97;12.97;;;;;;;;;;5077588;28;20283;-80
2021/01/06 14:50:44;;;;;;;19.43;12.70;;;;;;;;;;5082111;28;20251;-79
2021/01/06 14:53:13;;;;;;;22.60;14.03;;;;;;;;;;5089098;28;20274;-80
2021/01/06 14:56:04;;;;;;;24.57;15.77;;;;;;;;;;5081612;28;21050;-80
2021/01/06 14:58:40;;;;;;;27.37;18.37;;;;;;;;;;5078980;28;20682;-80
2021/01/06 15:01:09;;;;;;;34.73;21.90;;;;;;;;;;5080946;28;20393;-81
2021/01/06 15:03:42;;;;;;;24.63;16.80;;;;;;;;;;5096677;28;20286;-80
2021/01/06 15:06:16;;;;;;;20.23;14.47;;;;;;;;;;5091942;28;20361;-81